Time;durP1;ratioP1;P1;durP2;ratioP2;P2;SDS_P1;SDS_P2;PMS_P1;PMS_P2;Temp;Humidity;BMP_temperature;BMP_pressure;BME280_temperature;BME280_humidity;BME280_pressure;Samples;Min_cycle;Max_cycle;Signal;HPM_P1;HPM_P2
2021/06/10 00:02:15;;;;;;;9.57;8.87;;;17.20;99.90;;;;;;5073458;28;20170;-65
2021/06/10 00:04:41;;;;;;;10.23;9.37;;;17.20;99.90;;;;;;5072190;28;20198;-65
2021/06/10 00:07:06;;;;;;;10.87;9.97;;;17.10;99.90;;;;;;5052795;28;20186;-65
2021/06/10 00:09:32;;;;;;;10.50;9.70;;;17.10;99.90;;;;;;5062515;28;21004;-65
2021/06/10 00:11:58;;;;;;;10.67;9.57;;;17.10;99.90;;;;;;5073099;28;20554;-65
2021/06/10 00:14:23;;;;;;;10.00;9.27;;;17.10;99.90;;;;;;5065278;28;20226;-65
2021/06/10 00:16:50;;;;;;;11.20;10.30;;;17.10;99.90;;;;;;5053585;28;20175;-65
2021/06/10 00:19:16;;;;;;;11.23;10.23;;;17.00;99.90;;;;;;5059002;28;20252;-65
2021/06/10 00:21:42;;;;;;;9.90;9.20;;;17.00;99.90;;;;;;5073067;28;20178;-65
2021/06/10 00:24:08;;;;;;;10.57;9.77;;;16.90;99.90;;;;;;5068800;28;20190;-65
2021/06/10 00:26:34;;;;;;;10.67;9.67;;;16.90;99.90;;;;;;5053120;28;20257;-65
2021/06/10 00:29:00;;;;;;;10.43;9.60;;;17.10;99.90;;;;;;5055572;28;20236;-65
2021/06/10 00:31:26;;;;;;;10.00;9.20;;;17.10;99.90;;;;;;5072757;28;20174;-65
2021/06/10 00:33:51;;;;;;;9.77;8.97;;;17.00;99.90;;;;;;5071817;28;20202;-65
2021/06/10 00:36:17;;;;;;;10.30;9.50;;;17.10;99.90;;;;;;5052868;28;20167;-65
2021/06/10 00:38:43;;;;;;;10.67;9.77;;;17.00;99.90;;;;;;5067229;28;20282;-65
2021/06/10 00:41:09;;;;;;;9.93;9.23;;;16.90;99.90;;;;;;5072453;28;20205;-65
2021/06/10 00:43:35;;;;;;;10.00;9.30;;;17.00;99.90;;;;;;5059739;28;20182;-65
2021/06/10 00:46:00;;;;;;;10.57;9.80;;;17.00;99.90;;;;;;5052915;28;20179;-66
2021/06/10 00:48:26;;;;;;;11.67;10.77;;;16.90;99.90;;;;;;5062838;28;20327;-66
2021/06/10 00:50:52;;;;;;;10.63;9.80;;;16.80;99.90;;;;;;5071307;28;20178;-65
2021/06/10 00:53:25;;;;;;;11.23;10.43;;;16.70;99.90;;;;;;5062936;28;20277;-66
2021/06/10 00:55:54;;;;;;;10.30;9.47;;;16.50;99.90;;;;;;5052887;28;20167;-65
2021/06/10 00:58:20;;;;;;;9.23;8.53;;;16.40;99.90;;;;;;5061229;28;20194;-65
2021/06/10 01:00:46;;;;;;;9.47;8.77;;;16.40;99.90;;;;;;5072256;28;20170;-65
2021/06/10 01:03:12;;;;;;;9.33;8.63;;;16.40;99.90;;;;;;5064769;28;20183;-65
2021/06/10 01:05:39;;;;;;;9.37;8.77;;;16.40;99.90;;;;;;5052538;28;20224;-65
2021/06/10 01:08:22;;;;;;;9.20;8.47;;;16.40;99.90;;;;;;5058313;28;20190;-65
2021/06/10 01:11:25;;;;;;;10.07;9.40;;;16.40;99.90;;;;;;5072150;28;20177;-65
2021/06/10 01:13:57;;;;;;;12.03;11.23;;;16.40;99.90;;;;;;5042603;28;20217;-65
2021/06/10 01:16:26;;;;;;;10.20;9.50;;;16.40;99.90;;;;;;5052080;28;20169;-65
2021/06/10 01:18:52;;;;;;;10.63;9.90;;;16.40;99.90;;;;;;5063408;28;20202;-65
2021/06/10 01:21:19;;;;;;;11.90;11.10;;;16.50;99.90;;;;;;5071794;28;20161;-65
2021/06/10 01:24:13;;;;;;;10.13;9.33;;;16.50;99.90;;;;;;5061985;28;20718;-65
2021/06/10 01:26:45;;;;;;;9.93;9.33;;;16.50;99.90;;;;;;5052077;28;20167;-65
2021/06/10 01:29:16;;;;;;;11.10;10.30;;;16.40;99.90;;;;;;5064698;28;20229;-65
2021/06/10 01:31:41;;;;;;;11.07;10.23;;;16.30;99.90;;;;;;5071760;28;20672;-65
2021/06/10 01:34:08;;;;;;;9.17;8.47;;;16.20;99.90;;;;;;5059851;28;20202;-65
2021/06/10 01:36:46;;;;;;;8.53;7.93;;;16.20;99.90;;;;;;5051788;28;20175;-65
2021/06/10 01:39:15;;;;;;;9.00;8.30;;;16.20;99.90;;;;;;5063665;28;20243;-65
2021/06/10 01:41:42;;;;;;;8.23;7.73;;;16.20;99.90;;;;;;5069882;28;20545;-65
2021/06/10 01:44:11;;;;;;;8.40;7.70;;;16.20;99.90;;;;;;5054106;28;20538;-65
2021/06/10 01:46:37;;;;;;;7.73;7.23;;;16.10;99.90;;;;;;5063121;28;20209;-65
2021/06/10 01:49:05;;;;;;;8.00;7.50;;;16.10;99.90;;;;;;5071777;28;20198;-65
2021/06/10 01:51:32;;;;;;;8.03;7.23;;;16.10;99.90;;;;;;5057151;28;20652;-65
2021/06/10 01:54:04;;;;;;;8.57;7.93;;;16.10;99.90;;;;;;5053038;28;20289;-65
2021/06/10 01:56:30;;;;;;;8.63;8.03;;;16.10;99.90;;;;;;5071463;28;20170;-65
2021/06/10 01:58:57;;;;;;;8.07;7.53;;;16.10;99.90;;;;;;5070648;28;20566;-65
2021/06/10 02:01:25;;;;;;;7.50;6.93;;;16.10;99.90;;;;;;5051263;28;20167;-65
2021/06/10 02:03:53;;;;;;;9.63;8.87;;;16.10;99.90;;;;;;5051523;28;20186;-65
2021/06/10 02:06:19;;;;;;;9.47;8.87;;;16.20;99.90;;;;;;5071132;28;20194;-65
2021/06/10 02:08:47;;;;;;;8.27;7.57;;;16.20;99.90;;;;;;5071471;28;20284;-65
2021/06/10 02:11:15;;;;;;;8.60;8.07;;;16.20;99.90;;;;;;5052409;28;20186;-65
2021/06/10 02:13:43;;;;;;;7.83;7.43;;;16.10;99.90;;;;;;5051394;28;20259;-65
2021/06/10 02:16:10;;;;;;;8.37;7.77;;;16.20;99.90;;;;;;5064732;28;20667;-65
2021/06/10 02:18:40;;;;;;;7.67;7.17;;;16.30;99.90;;;;;;5051180;28;20194;-65
2021/06/10 02:21:10;;;;;;;8.23;7.63;;;16.30;99.90;;;;;;5052420;28;20261;-65
2021/06/10 02:23:38;;;;;;;8.53;7.93;;;16.40;99.90;;;;;;5051393;28;20240;-65
2021/06/10 02:26:06;;;;;;;10.17;9.57;;;16.60;99.90;;;;;;5067156;28;20178;-65
2021/06/10 02:28:32;;;;;;;9.63;8.60;;;16.60;99.90;;;;;;5071298;28;20194;-65
2021/06/10 02:30:59;;;;;;;8.77;8.17;;;16.50;99.90;;;;;;5057286;28;20179;-68
2021/06/10 02:33:25;;;;;;;8.73;8.23;;;16.40;99.90;;;;;;5052019;28;20672;-70
2021/06/10 02:35:51;;;;;;;8.43;7.83;;;16.40;99.90;;;;;;5035194;28;20186;-70
2021/06/10 02:38:18;;;;;;;10.97;10.10;;;16.50;99.90;;;;;;5052057;28;20191;-69
2021/06/10 02:40:48;;;;;;;7.70;7.20;;;16.50;99.90;;;;;;5063400;28;20225;-71
2021/06/10 02:43:14;;;;;;;8.30;7.80;;;16.50;99.90;;;;;;5072534;28;20177;-71
2021/06/10 02:45:42;;;;;;;7.53;7.03;;;16.60;99.90;;;;;;5062083;28;20179;-69
2021/06/10 02:48:09;;;;;;;9.33;8.57;;;16.60;99.90;;;;;;5052355;28;20601;-69
2021/06/10 02:50:38;;;;;;;7.40;6.97;;;16.60;99.90;;;;;;5059421;28;20297;-69
2021/06/10 02:53:05;;;;;;;7.37;6.87;;;16.60;99.90;;;;;;5071975;28;20695;-70
2021/06/10 02:55:33;;;;;;;9.87;9.27;;;16.50;99.90;;;;;;5064096;28;20178;-70
2021/06/10 02:57:59;;;;;;;7.20;6.70;;;16.60;99.90;;;;;;5052270;28;20264;-67
2021/06/10 03:00:30;;;;;;;7.83;7.30;;;16.60;99.90;;;;;;5054730;28;20175;-70
2021/06/10 03:02:57;;;;;;;10.33;9.70;;;16.50;99.90;;;;;;5052053;28;20228;-70
2021/06/10 03:05:25;;;;;;;7.77;7.27;;;16.30;99.90;;;;;;5057223;28;20193;-67
2021/06/10 03:07:53;;;;;;;9.57;8.97;;;16.20;99.90;;;;;;5055269;28;20175;-70
2021/06/10 03:10:22;;;;;;;11.10;10.40;;;16.20;99.90;;;;;;5054951;28;20183;-68
2021/06/10 03:12:49;;;;;;;8.47;7.87;;;16.20;99.90;;;;;;5075997;28;20162;-69
2021/06/10 03:15:15;;;;;;;8.43;7.83;;;16.20;99.90;;;;;;5072098;28;20205;-68
2021/06/10 03:17:41;;;;;;;7.90;7.37;;;16.20;99.90;;;;;;5064158;28;20260;-67
2021/06/10 03:20:08;;;;;;;8.40;7.80;;;16.20;99.90;;;;;;5055284;28;20201;-67
2021/06/10 03:22:35;;;;;;;7.97;7.27;;;16.30;99.90;;;;;;5054964;28;20825;-71
2021/06/10 03:25:03;;;;;;;9.00;8.30;;;16.20;99.90;;;;;;5055598;28;20258;-70
2021/06/10 03:27:31;;;;;;;8.30;7.80;;;16.10;99.90;;;;;;5075098;28;20178;-70
2021/06/10 03:29:57;;;;;;;8.20;7.63;;;16.10;99.90;;;;;;5075028;28;20226;-68
2021/06/10 03:32:25;;;;;;;7.53;6.93;;;15.90;99.90;;;;;;5055471;28;20174;-70
2021/06/10 03:34:51;;;;;;;8.60;8.00;;;15.80;99.90;;;;;;5055111;28;20226;-68
2021/06/10 03:37:17;;;;;;;8.70;8.20;;;15.70;99.90;;;;;;5072973;28;20221;-67
2021/06/10 03:39:45;;;;;;;8.83;8.03;;;15.70;99.90;;;;;;5074725;28;20696;-69
2021/06/10 03:42:12;;;;;;;8.70;8.10;;;15.70;99.90;;;;;;5058263;28;20254;-68
2021/06/10 03:44:38;;;;;;;9.57;8.97;;;15.60;99.90;;;;;;5055058;28;20171;-69
2021/06/10 03:47:05;;;;;;;8.83;8.23;;;15.60;99.90;;;;;;5069852;28;20178;-70
2021/06/10 03:49:32;;;;;;;8.20;7.60;;;15.70;99.90;;;;;;5054332;28;20191;-68
2021/06/10 03:51:58;;;;;;;8.53;7.67;;;15.60;99.90;;;;;;5068487;28;20375;-67
2021/06/10 03:54:24;;;;;;;7.80;7.23;;;15.60;99.90;;;;;;5066894;28;20199;-68
2021/06/10 03:56:50;;;;;;;8.80;8.00;;;15.60;99.90;;;;;;5055033;28;20171;-69
2021/06/10 03:59:16;;;;;;;8.10;7.40;;;15.60;99.90;;;;;;5055342;28;20206;-65
2021/06/10 04:01:42;;;;;;;7.87;7.27;;;15.60;99.90;;;;;;5052737;28;20167;-65
2021/06/10 04:04:08;;;;;;;8.20;7.50;;;15.60;99.90;;;;;;5067290;28;20182;-65
2021/06/10 04:06:35;;;;;;;8.53;7.80;;;15.60;99.90;;;;;;5073419;28;20181;-65
2021/06/10 04:09:03;;;;;;;8.50;7.90;;;15.70;99.90;;;;;;5061181;28;20737;-65
2021/06/10 04:11:29;;;;;;;8.83;8.17;;;15.70;99.90;;;;;;5053263;28;20644;-65
2021/06/10 04:13:55;;;;;;;8.60;8.00;;;15.70;99.90;;;;;;5064194;28;20212;-65
2021/06/10 04:16:21;;;;;;;8.60;8.00;;;15.80;99.90;;;;;;5073341;28;20162;-65
2021/06/10 04:18:47;;;;;;;8.37;7.77;;;15.90;99.90;;;;;;5063903;28;20191;-65
2021/06/10 04:21:12;;;;;;;9.03;8.43;;;16.00;99.90;;;;;;5052597;28;20179;-65
2021/06/10 04:23:38;;;;;;;8.10;7.40;;;16.10;99.90;;;;;;5059889;28;20217;-65
2021/06/10 04:26:04;;;;;;;8.83;8.23;;;16.10;99.90;;;;;;5073211;28;20167;-65
2021/06/10 04:28:29;;;;;;;7.57;6.97;;;16.20;99.90;;;;;;5067018;28;20215;-65
2021/06/10 04:30:55;;;;;;;7.97;7.40;;;16.30;99.90;;;;;;5052950;28;20640;-65
2021/06/10 04:33:21;;;;;;;7.97;7.43;;;16.40;99.90;;;;;;5056818;28;20217;-65
2021/06/10 04:35:47;;;;;;;8.60;8.00;;;16.80;99.90;;;;;;5073032;28;20163;-65
2021/06/10 04:38:14;;;;;;;8.43;7.87;;;16.80;99.90;;;;;;5070571;28;22151;-65
2021/06/10 04:40:40;;;;;;;9.17;8.23;;;16.90;99.90;;;;;;5082314;22;20223;-66
2021/06/10 04:43:06;;;;;;;8.83;8.23;;;17.00;99.90;;;;;;5092466;28;20548;-66
2021/06/10 04:45:33;;;;;;;10.17;9.47;;;17.10;99.90;;;;;;5092896;28;20161;-66
2021/06/10 04:47:59;;;;;;;8.90;8.17;;;17.10;99.90;;;;;;5092962;28;20173;-66
2021/06/10 04:50:26;;;;;;;7.30;6.80;;;17.30;99.90;;;;;;5064623;28;20660;-65
2021/06/10 04:52:52;;;;;;;8.57;8.07;;;17.60;99.90;;;;;;5052577;28;20258;-66
2021/06/10 04:55:18;;;;;;;6.90;6.40;;;17.90;99.90;;;;;;5070196;28;20284;-65
2021/06/10 04:57:44;;;;;;;7.30;6.60;;;18.00;99.90;;;;;;5072366;28;20170;-65
2021/06/10 05:00:10;;;;;;;7.97;7.17;;;18.20;99.90;;;;;;5055738;28;20205;-66
2021/06/10 05:02:36;;;;;;;8.07;7.53;;;18.50;99.90;;;;;;5052215;28;20258;-66
2021/06/10 05:05:03;;;;;;;9.40;8.00;;;19.00;99.90;;;;;;5066747;28;20193;-65
2021/06/10 05:07:29;;;;;;;8.27;7.70;;;19.40;99.90;;;;;;5072250;28;20178;-65
2021/06/10 05:09:54;;;;;;;8.45;7.65;;;19.80;99.90;;;;;;5058911;28;20182;-66
2021/06/10 05:12:20;;;;;;;9.55;8.82;;;20.00;99.90;;;;;;5065186;28;20261;-65
2021/06/10 05:14:45;;;;;;;9.68;8.40;;;20.40;99.90;;;;;;5060704;28;20206;-67
2021/06/10 05:17:11;;;;;;;7.57;6.82;;;20.70;99.90;;;;;;5052231;28;20655;-66
2021/06/10 05:19:36;;;;;;;7.10;6.57;;;21.00;99.90;;;;;;5061315;28;20214;-66
2021/06/10 05:22:03;;;;;;;7.32;6.63;;;21.20;99.90;;;;;;5071896;28;20597;-66
2021/06/10 05:24:28;;;;;;;6.60;6.07;;;21.20;99.90;;;;;;5064012;28;20206;-65
2021/06/10 05:26:55;;;;;;;6.07;5.65;;;21.50;99.90;;;;;;5052242;28;20202;-65
2021/06/10 05:29:21;;;;;;;6.57;5.97;;;21.80;99.90;;;;;;5057767;28;20187;-64
2021/06/10 05:31:47;;;;;;;9.07;5.88;;;22.20;99.90;;;;;;5071739;28;20187;-65
2021/06/10 05:34:13;;;;;;;5.85;5.32;;;22.70;99.90;;;;;;5066826;28;20209;-64
2021/06/10 05:36:38;;;;;;;6.05;5.53;;;23.00;99.90;;;;;;5051721;28;20175;-65
2021/06/10 05:39:05;;;;;;;6.32;5.80;;;23.10;99.90;;;;;;5054511;28;20185;-65
2021/06/10 05:41:30;;;;;;;8.18;6.03;;;23.30;99.90;;;;;;5071401;28;20205;-65
2021/06/10 05:43:56;;;;;;;8.80;6.10;;;23.30;99.90;;;;;;5070653;28;20229;-65
2021/06/10 05:46:22;;;;;;;8.18;7.47;;;23.40;99.90;;;;;;5051674;28;20617;-64
2021/06/10 05:48:48;;;;;;;8.85;8.02;;;23.40;99.90;;;;;;5051626;28;20531;-65
2021/06/10 05:51:14;;;;;;;7.85;7.35;;;23.70;99.90;;;;;;5070293;28;20202;-65
2021/06/10 05:53:40;;;;;;;6.20;5.55;;;23.80;99.90;;;;;;5062761;28;20202;-66
2021/06/10 05:56:05;;;;;;;6.05;5.65;;;24.00;99.90;;;;;;5051679;28;20178;-64
2021/06/10 05:58:31;;;;;;;5.63;5.22;;;24.30;99.90;;;;;;5057935;28;20249;-64
2021/06/10 06:00:57;;;;;;;6.13;5.63;;;24.40;99.90;;;;;;5071500;28;20244;-66
2021/06/10 06:03:23;;;;;;;6.65;6.05;;;24.60;99.90;;;;;;5066550;28;20198;-65
2021/06/10 06:05:48;;;;;;;6.10;5.50;;;24.80;99.90;;;;;;5067747;28;20174;-65
2021/06/10 06:08:16;;;;;;;6.03;5.63;;;25.00;99.90;;;;;;5070097;28;20548;-65
2021/06/10 06:10:41;;;;;;;6.70;6.10;;;25.30;99.90;;;;;;5070842;28;20239;-66
2021/06/10 06:13:09;;;;;;;6.40;5.88;;;25.50;99.90;;;;;;5055317;28;20261;-66
2021/06/10 06:15:35;;;;;;;6.43;6.00;;;25.80;99.90;;;;;;5051262;28;20167;-66
2021/06/10 06:18:01;;;;;;;5.95;5.53;;;26.10;99.90;;;;;;5065470;28;20196;-65
2021/06/10 06:20:27;;;;;;;7.57;6.88;;;26.40;99.90;;;;;;5050926;28;20245;-64
2021/06/10 06:22:53;;;;;;;6.07;5.53;;;26.70;99.90;;;;;;5063735;28;20628;-65
2021/06/10 06:25:20;;;;;;;5.90;5.30;;;26.80;99.90;;;;;;5071339;28;20288;-64
2021/06/10 06:27:46;;;;;;;6.15;5.75;;;27.10;99.90;;;;;;5060159;28;20659;-65
2021/06/10 06:30:13;;;;;;;6.18;5.53;;;27.40;99.90;;;;;;5052025;28;20209;-64
2021/06/10 06:32:39;;;;;;;5.45;5.05;;;27.60;99.90;;;;;;5050877;28;20171;-65
2021/06/10 06:35:06;;;;;;;5.68;5.10;;;27.90;99.90;;;;;;5052247;28;20220;-65
2021/06/10 06:37:33;;;;;;;6.63;4.93;;;28.10;99.90;;;;;;5051050;28;20167;-64
2021/06/10 06:39:59;;;;;;;5.68;5.25;;;28.30;99.90;;;;;;5051302;28;20201;-65
2021/06/10 06:42:25;;;;;;;5.97;5.47;;;28.60;99.90;;;;;;5071024;28;20178;-65
2021/06/10 06:44:51;;;;;;;5.50;5.00;;;28.80;99.90;;;;;;5071374;28;20245;-65
2021/06/10 06:47:17;;;;;;;6.43;5.40;;;29.00;99.90;;;;;;5055541;28;20239;-65
2021/06/10 06:49:43;;;;;;;5.35;4.93;;;29.30;99.90;;;;;;5062676;28;20182;-65
2021/06/10 06:52:09;;;;;;;4.85;4.30;;;29.30;99.90;;;;;;5074917;28;20178;-65
2021/06/10 06:54:34;;;;;;;5.50;5.00;;;29.30;99.90;;;;;;5067113;28;20198;-64
2021/06/10 06:57:00;;;;;;;4.65;4.28;;;29.10;99.90;;;;;;5054821;28;20221;-64
2021/06/10 06:59:26;;;;;;;5.18;4.72;;;28.80;99.90;;;;;;5059920;28;20179;-64
2021/06/10 07:01:51;;;;;;;5.15;4.70;;;28.80;99.90;;;;;;5074442;28;20285;-65
2021/06/10 07:04:17;;;;;;;4.85;4.50;;;28.90;99.90;;;;;;5070938;28;20236;-65
2021/06/10 07:06:43;;;;;;;5.30;4.43;;;29.00;99.90;;;;;;5054603;28;20171;-64
2021/06/10 07:09:09;;;;;;;5.10;4.60;;;29.00;99.90;;;;;;5056254;28;20206;-65
2021/06/10 07:11:36;;;;;;;5.13;4.72;;;28.80;99.90;;;;;;5074071;28;20230;-64
2021/06/10 07:14:03;;;;;;;5.47;5.07;;;29.00;99.90;;;;;;5074191;28;20194;-65
2021/06/10 07:16:29;;;;;;;6.30;5.80;;;29.30;99.90;;;;;;5054358;28;20521;-65
2021/06/10 07:18:54;;;;;;;4.85;4.45;;;29.60;99.90;;;;;;5054501;28;20174;-65
2021/06/10 07:21:20;;;;;;;5.75;5.25;;;29.70;99.90;;;;;;5070095;28;20558;-65
2021/06/10 07:23:45;;;;;;;5.25;4.82;;;29.90;99.90;;;;;;5074272;28;20253;-65
2021/06/10 07:26:11;;;;;;;6.78;5.38;;;30.20;99.90;;;;;;5073777;28;20630;-65
2021/06/10 07:28:37;;;;;;;5.60;5.10;;;30.40;99.90;;;;;;5074127;28;20234;-64
2021/06/10 07:31:03;;;;;;;5.70;5.10;;;30.50;99.90;;;;;;5058967;28;20243;-65
2021/06/10 07:33:28;;;;;;;5.93;5.43;;;30.50;99.90;;;;;;5053964;28;20531;-65
2021/06/10 07:35:54;;;;;;;5.93;4.65;;;30.20;99.90;;;;;;5066417;28;20174;-65
2021/06/10 07:38:20;;;;;;;6.18;5.65;;;30.50;99.90;;;;;;5074020;28;20668;-64
2021/06/10 07:40:45;;;;;;;6.38;5.78;;;30.50;99.90;;;;;;5062416;28;20203;-65
2021/06/10 07:43:11;;;;;;;4.97;4.63;;;30.70;99.90;;;;;;5053920;28;20194;-65
2021/06/10 07:45:37;;;;;;;6.57;5.97;;;31.00;99.90;;;;;;5062640;28;20543;-64
2021/06/10 07:48:03;;;;;;;6.90;6.30;;;31.30;99.90;;;;;;5073830;28;20263;-65
2021/06/10 07:50:29;;;;;;;5.53;5.13;;;31.30;99.90;;;;;;5064770;28;20225;-64
2021/06/10 07:52:55;;;;;;;6.28;5.78;;;31.30;99.90;;;;;;5056298;28;20639;-65
2021/06/10 07:55:21;;;;;;;6.68;6.00;;;31.20;99.90;;;;;;5071967;28;20351;-66
2021/06/10 07:57:48;;;;;;;6.03;5.40;;;31.10;99.90;;;;;;5073093;28;20174;-65
2021/06/10 08:00:14;;;;;;;6.65;5.43;;;31.50;99.90;;;;;;5073287;28;20192;-65
2021/06/10 08:02:40;;;;;;;6.28;5.78;;;31.70;99.90;;;;;;5071444;28;20178;-66
2021/06/10 08:05:07;;;;;;;6.07;5.57;;;32.00;99.90;;;;;;5061018;28;20177;-66
2021/06/10 08:07:33;;;;;;;5.43;4.93;;;32.30;99.90;;;;;;5053456;28;20557;-66
2021/06/10 08:09:59;;;;;;;6.05;5.45;;;32.50;99.90;;;;;;5053145;28;20195;-64
2021/06/10 08:12:25;;;;;;;5.63;5.22;;;32.80;99.90;;;;;;5053466;28;20178;-66
2021/06/10 08:14:51;;;;;;;6.93;6.38;;;33.00;99.90;;;;;;5052766;28;20656;-65
2021/06/10 08:17:17;;;;;;;6.88;6.35;;;32.80;99.90;;;;;;5053472;28;20174;-66
2021/06/10 08:19:43;;;;;;;7.57;6.20;;;32.90;99.90;;;;;;5053368;28;20167;-65
2021/06/10 08:22:09;;;;;;;7.15;6.45;;;32.90;99.90;;;;;;5053222;28;20217;-66
2021/06/10 08:24:35;;;;;;;9.05;8.15;;;33.10;99.90;;;;;;5052903;28;20170;-67
2021/06/10 08:27:00;;;;;;;11.02;7.18;;;33.10;99.90;;;;;;5062778;28;20178;-65
2021/06/10 08:29:28;;;;;;;7.95;7.15;;;32.80;99.90;;;;;;5072025;28;20711;-65
2021/06/10 08:31:55;;;;;;;8.02;7.20;;;32.80;99.90;;;;;;5072101;28;20186;-65
2021/06/10 08:34:22;;;;;;;6.60;6.00;;;32.80;99.90;;;;;;5072837;28;20205;-65
2021/06/10 08:36:49;;;;;;;5.60;4.82;;;33.10;99.90;;;;;;5072894;28;20173;-65
2021/06/10 08:39:15;;;;;;;6.05;5.40;;;33.10;99.90;;;;;;5072815;28;20253;-66
2021/06/10 08:41:42;;;;;;;5.80;5.30;;;33.20;99.90;;;;;;5072480;28;20264;-65
2021/06/10 08:44:08;;;;;;;5.70;5.25;;;33.00;99.90;;;;;;5072950;28;20182;-65
2021/06/10 08:46:35;;;;;;;5.80;4.90;;;32.80;99.90;;;;;;5072549;28;20174;-66
2021/06/10 08:49:01;;;;;;;4.75;4.45;;;33.10;99.90;;;;;;5072702;28;20178;-66
2021/06/10 08:51:27;;;;;;;6.05;5.57;;;33.40;99.90;;;;;;5072146;28;20213;-65
2021/06/10 08:53:56;;;;;;;5.22;4.85;;;33.50;99.90;;;;;;5072560;28;20568;-66
2021/06/10 08:56:24;;;;;;;7.63;6.93;;;33.50;99.90;;;;;;5072237;28;20526;-65
2021/06/10 08:58:50;;;;;;;6.75;6.22;;;33.50;99.90;;;;;;5070362;28;20177;-66
2021/06/10 09:01:16;;;;;;;6.32;5.82;;;33.40;99.90;;;;;;5071921;28;20194;-66
2021/06/10 09:03:42;;;;;;;5.18;4.70;;;33.30;99.90;;;;;;5072424;28;20182;-66
2021/06/10 09:06:18;;;;;;;6.38;5.85;;;33.40;99.30;;;;;;5071394;28;20872;-66
2021/06/10 09:08:47;;;;;;;6.45;5.95;;;33.30;99.00;;;;;;5051704;28;20174;-66
2021/06/10 09:11:19;;;;;;;5.75;5.18;;;33.40;99.90;;;;;;5060573;28;20202;-65
2021/06/10 09:13:53;;;;;;;7.00;6.40;;;32.80;98.30;;;;;;5072041;28;20198;-65
2021/06/10 09:16:31;;;;;;;6.05;5.65;;;32.60;99.20;;;;;;5062806;28;20182;-64
2021/06/10 09:19:03;;;;;;;5.90;5.32;;;32.60;99.60;;;;;;5051329;28;20171;-64
2021/06/10 09:21:35;;;;;;;6.95;6.45;;;32.90;99.20;;;;;;5061538;28;20296;-65
2021/06/10 09:24:16;;;;;;;6.82;6.22;;;32.90;98.30;;;;;;5072025;28;20227;-64
2021/06/10 09:26:42;;;;;;;6.82;6.32;;;32.80;98.80;;;;;;5060458;28;20257;-64
2021/06/10 09:29:08;;;;;;;7.05;6.55;;;33.00;99.90;;;;;;5051793;28;20248;-64
2021/06/10 09:31:36;;;;;;;5.75;5.32;;;33.50;99.90;;;;;;5047373;28;20202;-64
2021/06/10 09:34:08;;;;;;;5.50;5.00;;;33.90;99.90;;;;;;5070395;28;20265;-65
2021/06/10 09:36:46;;;;;;;4.57;4.10;;;34.30;99.90;;;;;;5051757;28;20167;-65
2021/06/10 09:39:15;;;;;;;4.80;4.40;;;34.90;99.40;;;;;;5058286;28;20256;-65
2021/06/10 09:42:05;;;;;;;5.13;4.72;;;35.40;98.00;;;;;;5071172;28;20676;-64
2021/06/10 09:45:05;;;;;;;6.07;4.55;;;35.40;96.40;;;;;;5062992;28;20708;-64
2021/06/10 09:47:35;;;;;;;5.30;4.90;;;34.90;97.50;;;;;;5051676;28;20250;-64
2021/06/10 09:50:20;;;;;;;5.40;4.90;;;33.80;99.50;;;;;;5063253;28;20198;-65
2021/06/10 09:52:47;;;;;;;5.03;4.63;;;33.90;97.80;;;;;;5071502;28;20174;-64
2021/06/10 09:55:25;;;;;;;5.43;5.03;;;34.30;99.90;;;;;;5058024;28;20202;-65
2021/06/10 09:57:52;;;;;;;4.63;4.22;;;34.80;97.80;;;;;;5051580;28;20167;-64
2021/06/10 10:00:26;;;;;;;5.15;4.78;;;34.70;96.90;;;;;;5051948;28;20198;-65
2021/06/10 10:02:52;;;;;;;5.80;5.30;;;34.60;94.20;;;;;;5043239;28;20174;-64
2021/06/10 10:05:22;;;;;;;6.05;5.50;;;34.00;96.00;;;;;;5071412;28;20231;-64
2021/06/10 10:07:48;;;;;;;5.88;5.47;;;33.90;98.00;;;;;;5062711;28;20174;-64
2021/06/10 10:10:14;;;;;;;5.53;5.03;;;33.90;96.50;;;;;;5050888;28;20626;-64
2021/06/10 10:12:43;;;;;;;5.68;4.75;;;33.90;95.90;;;;;;5066940;28;20759;-64
2021/06/10 10:15:09;;;;;;;6.38;5.82;;;33.10;97.00;;;;;;5071321;28;20671;-64
2021/06/10 10:17:36;;;;;;;6.25;5.75;;;33.20;96.20;;;;;;5056563;28;20181;-64
2021/06/10 10:20:04;;;;;;;5.22;4.88;;;33.20;96.00;;;;;;5055688;28;20209;-65
2021/06/10 10:22:33;;;;;;;4.35;4.05;;;33.40;96.20;;;;;;5058683;28;20202;-65
2021/06/10 10:24:59;;;;;;;4.07;3.80;;;33.50;96.80;;;;;;5058499;28;20737;-65
2021/06/10 10:27:25;;;;;;;4.30;4.00;;;33.90;97.40;;;;;;5075299;28;20181;-66
2021/06/10 10:29:51;;;;;;;4.03;3.83;;;33.90;95.70;;;;;;5073163;28;20181;-65
2021/06/10 10:32:26;;;;;;;4.05;3.80;;;33.90;94.60;;;;;;5055240;28;20193;-65
2021/06/10 10:34:52;;;;;;;4.43;3.95;;;34.30;96.20;;;;;;5056006;28;20201;-65
2021/06/10 10:37:26;;;;;;;4.68;4.38;;;34.20;95.10;;;;;;5075131;28;20193;-66
2021/06/10 10:39:54;;;;;;;4.05;3.75;;;34.30;93.80;;;;;;5073692;28;20199;-66
2021/06/10 10:42:30;;;;;;;4.10;3.90;;;33.80;96.00;;;;;;5073421;28;20189;-64
2021/06/10 10:45:19;;;;;;;4.07;3.78;;;34.00;96.60;;;;;;5074487;28;21092;-64
2021/06/10 10:48:04;;;;;;;3.65;3.45;;;34.20;95.50;;;;;;5075213;28;20693;-65
2021/06/10 10:50:39;;;;;;;4.00;3.70;;;34.10;95.20;;;;;;5073644;28;20194;-65
2021/06/10 10:53:21;;;;;;;4.07;3.78;;;34.20;93.70;;;;;;5074826;28;20173;-64
2021/06/10 10:56:04;;;;;;;3.60;3.38;;;34.00;95.60;;;;;;5068207;28;20182;-64
2021/06/10 10:58:29;;;;;;;4.05;3.65;;;34.40;97.40;;;;;;5054744;28;20163;-64
2021/06/10 11:01:00;;;;;;;4.93;4.38;;;34.30;95.40;;;;;;5061471;28;20899;-64
2021/06/10 11:03:32;;;;;;;3.95;3.65;;;34.10;95.80;;;;;;5074646;28;20600;-64
2021/06/10 11:06:18;;;;;;;4.03;3.65;;;34.50;95.90;;;;;;5067463;28;20266;-65
2021/06/10 11:09:11;;;;;;;4.20;3.90;;;34.80;96.10;;;;;;5054263;28;20174;-65
2021/06/10 11:11:59;;;;;;;4.20;3.80;;;35.30;94.80;;;;;;5065729;28;20259;-65
2021/06/10 11:14:52;;;;;;;5.28;4.25;;;34.80;93.70;;;;;;5072109;28;20206;-65
2021/06/10 11:17:25;;;;;;;4.07;3.72;;;33.30;93.50;;;;;;5073930;28;20174;-64
2021/06/10 11:19:56;;;;;;;4.22;3.92;;;33.00;96.60;;;;;;5074093;28;20220;-64
2021/06/10 11:22:32;;;;;;;5.13;4.82;;;33.20;95.80;;;;;;5057029;28;20175;-66
2021/06/10 11:24:58;;;;;;;4.28;4.07;;;32.90;95.30;;;;;;5054344;28;20178;-64
2021/06/10 11:27:41;;;;;;;4.32;4.10;;;33.20;95.50;;;;;;5076287;28;20173;-65
2021/06/10 11:30:24;;;;;;;6.68;3.60;;;33.10;95.30;;;;;;5094002;28;20196;-66
2021/06/10 11:33:10;;;;;;;5.50;5.05;;;32.70;94.80;;;;;;5073748;28;20247;-66
2021/06/10 11:35:40;;;;;;;6.40;6.00;;;32.50;95.90;;;;;;5070753;28;20272;-66
2021/06/10 11:38:13;;;;;;;4.57;4.28;;;32.40;97.70;;;;;;5054141;28;20236;-66
2021/06/10 11:40:42;;;;;;;5.55;5.15;;;32.70;95.10;;;;;;5055996;28;20731;-65
2021/06/10 11:43:09;;;;;;;3.97;3.70;;;32.70;95.50;;;;;;5073981;28;20249;-65
2021/06/10 11:45:36;;;;;;;4.25;4.05;;;33.40;96.70;;;;;;5071739;28;20178;-65
2021/06/10 11:48:02;;;;;;;5.72;4.22;;;33.70;97.10;;;;;;5053988;28;20554;-65
2021/06/10 11:50:40;;;;;;;4.10;3.80;;;33.90;98.00;;;;;;5053436;28;20223;-65
2021/06/10 11:53:17;;;;;;;4.00;3.70;;;34.20;96.80;;;;;;5053647;28;20206;-65
2021/06/10 11:55:43;;;;;;;4.30;3.90;;;34.50;95.10;;;;;;5055377;28;20178;-66
2021/06/10 11:58:11;;;;;;;4.40;4.07;;;34.70;95.40;;;;;;5073758;28;20651;-65
2021/06/10 12:00:46;;;;;;;4.07;3.78;;;35.00;96.60;;;;;;5068625;28;20214;-65
2021/06/10 12:03:15;;;;;;;3.80;3.60;;;35.50;95.80;;;;;;5035881;28;20253;-65
2021/06/10 12:05:49;;;;;;;5.07;3.45;;;36.10;95.00;;;;;;5057896;28;20285;-66
2021/06/10 12:08:25;;;;;;;3.90;3.60;;;36.20;93.60;;;;;;5073644;28;20218;-66
2021/06/10 12:10:56;;;;;;;3.70;3.50;;;35.70;92.40;;;;;;5067404;28;20697;-66
2021/06/10 12:13:33;;;;;;;4.30;4.10;;;35.00;93.00;;;;;;5053608;28;20790;-65
2021/06/10 12:16:05;;;;;;;6.10;5.80;;;34.60;95.00;;;;;;5059234;28;20177;-66
2021/06/10 12:18:32;;;;;;;3.90;3.70;;;34.60;94.70;;;;;;5073164;28;20527;-65
2021/06/10 12:21:00;;;;;;;3.60;3.40;;;34.20;96.60;;;;;;5055105;28;20203;-65
2021/06/10 12:23:38;;;;;;;6.35;5.85;;;34.30;95.00;;;;;;5053190;28;20167;-65
2021/06/10 12:26:14;;;;;;;4.20;3.80;;;34.90;96.20;;;;;;5070947;28;20201;-64
2021/06/10 12:28:44;;;;;;;4.07;3.78;;;35.40;92.80;;;;;;5073024;28;20173;-63
2021/06/10 12:31:21;;;;;;;3.63;3.42;;;34.50;90.70;;;;;;5054581;28;20599;-65
2021/06/10 12:33:49;;;;;;;4.35;4.05;;;33.80;92.10;;;;;;5052957;28;20239;-66
2021/06/10 12:36:18;;;;;;;4.00;3.65;;;33.60;92.10;;;;;;5054062;28;20240;-66
2021/06/10 12:38:51;;;;;;;5.75;5.45;;;33.40;93.00;;;;;;5053129;28;20261;-66
2021/06/10 12:41:23;;;;;;;4.75;4.35;;;33.10;94.20;;;;;;5070036;28;20213;-65
2021/06/10 12:43:51;;;;;;;5.43;5.13;;;32.90;94.10;;;;;;5071977;28;20651;-66
2021/06/10 12:46:17;;;;;;;4.63;4.43;;;33.00;92.50;;;;;;5072890;28;20182;-65
2021/06/10 12:48:54;;;;;;;4.47;4.18;;;32.70;92.30;;;;;;5072779;28;20174;-66
2021/06/10 12:51:27;;;;;;;5.57;5.07;;;32.70;91.70;;;;;;5069679;28;20209;-66
2021/06/10 12:54:00;;;;;;;4.22;4.03;;;31.80;89.00;;;;;;5072578;28;20563;-66